Sanford, North Carolina
Current Conditions -  °F | °C
As of 8:35 PM on Tuesday 25 Nov 2014 (Local Time) from KTTA Reporting Station
Light Rain Light Rain  
Wind Chill: 51°   Ceiling: 2200
Heat Index: 51°   Visibility: 10mi
Dew Point: 51°   Wind: 0mph
Humidity: 97%   Direction: NA
Pressure: 30.09"   Gusts: NA
Location:  35.47°N, 79.16°W
Report Text: KTTA 260135Z AUTO 00000KT 10SM -RA OVC022 11/10 A3009 RMK AO2 T01080103
Loading
Personal Weather Stations






























Interactive Weather Map New forecast layout! Learn more

10-Day Weather Forecast

Advertisements
Track Severe Weather on mobile